createdAt,value
2022-11-16T00:03:38.708Z,76.15
2022-11-16T00:09:40.815Z,86.75
2022-11-16T00:15:43.297Z,77.93
2022-11-16T00:21:45.581Z,82.05
2022-11-16T00:27:48.002Z,80.93
2022-11-16T00:33:50.661Z,86.13
2022-11-16T00:39:52.875Z,86.65
2022-11-16T00:45:55.141Z,78.60
2022-11-16T00:51:57.590Z,80.07
2022-11-16T01:04:02.434Z,100.47
2022-11-16T01:10:07.015Z,84.72
2022-11-16T01:16:13.093Z,94.05
2022-11-16T01:22:15.536Z,95.72
2022-11-16T01:28:17.733Z,109.85
2022-11-16T01:34:25.573Z,101.07
2022-11-16T01:40:32.194Z,90.30
2022-11-16T01:46:34.370Z,88.60
2022-11-16T01:52:44.088Z,87.20
2022-11-16T01:58:47.084Z,88.03
2022-11-16T02:04:59.032Z,88.95
2022-11-16T02:11:54.950Z,91.03
2022-11-16T02:18:16.377Z,94.28
2022-11-16T02:24:56.628Z,82.18
2022-11-16T02:31:04.004Z,84.43
2022-11-16T02:37:09.454Z,88.07
2022-11-16T02:43:18.208Z,89.75
2022-11-16T02:49:20.750Z,92.43
2022-11-16T02:55:24.381Z,95.97
2022-11-16T03:01:35.442Z,105.18
2022-11-16T03:07:49.492Z,111.53
2022-11-16T03:13:53.931Z,120.07
2022-11-16T03:20:09.474Z,113.07
2022-11-16T03:26:17.440Z,122.93
2022-11-16T03:32:46.678Z,151.13
2022-11-16T03:38:53.101Z,105.80
2022-11-16T03:44:57.987Z,118.53
2022-11-16T03:51:01.173Z,122.93
2022-11-16T03:57:03.757Z,123.93
2022-11-16T04:03:06.032Z,109.72
2022-11-16T04:09:29.200Z,109.40
2022-11-16T04:15:50.114Z,103.32
2022-11-16T04:22:25.252Z,92.07
2022-11-16T04:28:32.289Z,94.95
2022-11-16T04:34:56.328Z,116.38
2022-11-16T04:40:59.704Z,112.43
2022-11-16T04:47:08.396Z,120.93
2022-11-16T04:53:13.641Z,113.13
2022-11-16T04:59:22.549Z,128.10
2022-11-16T05:05:25.553Z,125.03
2022-11-16T05:17:30.830Z,111.05
2022-11-16T05:23:54.728Z,89.68
2022-11-16T05:29:59.839Z,93.78
2022-11-16T05:36:02.107Z,99.72
2022-11-16T05:42:05.750Z,103.03
2022-11-16T05:48:07.826Z,115.25
2022-11-16T05:54:13.644Z,123.95
2022-11-16T06:00:16.810Z,112.65
2022-11-16T06:06:23.545Z,121.70
2022-11-16T06:12:27.187Z,117.35
2022-11-16T06:18:29.520Z,100.15
2022-11-16T06:24:31.966Z,99.45
2022-11-16T06:30:34.394Z,100.47
2022-11-16T06:36:38.055Z,94.45
2022-11-16T06:42:40.594Z,100.35
2022-11-16T06:48:45.286Z,94.20
2022-11-16T06:54:49.220Z,94.47
2022-11-16T07:00:51.779Z,115.72
2022-11-16T07:06:54.173Z,94.97
2022-11-16T07:18:59.777Z,105.90
2022-11-16T07:25:05.537Z,98.70
2022-11-16T07:37:11.526Z,91.18
2022-11-16T07:43:15.539Z,101.07
2022-11-16T07:49:37.359Z,109.22
2022-11-16T07:55:53.885Z,89.45
2022-11-16T08:01:57.517Z,90.55
2022-11-16T08:08:00.419Z,79.30
2022-11-16T08:14:04.361Z,105.40
2022-11-16T08:26:14.990Z,95.20
2022-11-16T08:32:20.305Z,100.32
2022-11-16T08:38:22.556Z,113.00
2022-11-16T08:50:33.448Z,102.75
2022-11-16T08:56:48.183Z,99.40
2022-11-16T09:02:50.808Z,90.75
2022-11-16T09:08:53.855Z,102.93
2022-11-16T09:14:55.968Z,114.80
2022-11-16T09:20:58.549Z,105.43
2022-11-16T09:27:01.864Z,111.47
2022-11-16T09:33:04.029Z,106.13
2022-11-16T09:45:46.388Z,75.35
2022-11-16T09:51:53.876Z,70.57
2022-11-16T09:58:00.096Z,73.68
2022-11-16T10:04:28.498Z,76.75
2022-11-16T10:11:06.777Z,82.53
2022-11-16T10:17:38.169Z,81.47
2022-11-16T10:23:50.127Z,98.47
2022-11-16T10:29:57.717Z,103.93
2022-11-16T10:36:01.656Z,103.55
2022-11-16T10:42:08.054Z,100.00
2022-11-16T10:48:22.967Z,107.50
2022-11-16T10:54:26.120Z,115.28
2022-11-16T11:00:53.750Z,111.35
2022-11-16T11:06:57.290Z,104.60
2022-11-16T11:13:07.153Z,99.63
2022-11-16T11:19:24.003Z,93.10
2022-11-16T11:25:44.002Z,120.97
2022-11-16T11:31:51.236Z,116.88
2022-11-16T11:37:56.728Z,97.28
2022-11-16T11:44:19.258Z,166.00
2022-11-16T11:50:36.887Z,128.80
2022-11-16T11:56:39.452Z,121.20
2022-11-16T12:03:26.656Z,104.15
2022-11-16T12:10:10.728Z,92.10
2022-11-16T12:16:40.650Z,95.22
2022-11-16T12:23:04.958Z,114.28
2022-11-16T12:29:19.463Z,113.13
2022-11-16T12:35:55.868Z,107.72
2022-11-16T12:41:58.102Z,108.00
2022-11-16T12:48:15.122Z,74.27
2022-11-16T12:54:35.159Z,86.18
2022-11-16T13:01:09.914Z,83.20
2022-11-16T13:07:20.440Z,84.72
2022-11-16T13:13:38.592Z,79.47
2022-11-16T13:19:43.940Z,75.07
2022-11-16T13:26:11.858Z,83.47
2022-11-16T13:32:32.690Z,81.03
2022-11-16T13:38:55.279Z,86.57
2022-11-16T13:45:21.797Z,89.47
2022-11-16T13:51:24.925Z,70.85
2022-11-16T13:57:34.898Z,87.45
2022-11-16T14:03:42.160Z,87.65
2022-11-16T14:09:46.700Z,72.57
2022-11-16T14:16:18.113Z,70.35
2022-11-16T14:23:05.013Z,68.82
2022-11-16T14:29:31.109Z,78.80
2022-11-16T14:35:37.636Z,71.50
2022-11-16T14:41:45.351Z,81.00
2022-11-16T14:47:48.341Z,69.05
2022-11-16T14:53:58.052Z,68.38
2022-11-16T15:00:18.894Z,68.18
2022-11-16T15:06:22.151Z,91.30
2022-11-16T15:12:43.601Z,75.82
2022-11-16T15:19:02.418Z,76.38
2022-11-16T15:25:04.750Z,62.95
2022-11-16T15:31:07.546Z,70.93
2022-11-16T15:37:15.408Z,71.05
2022-11-16T15:43:19.339Z,72.22
2022-11-16T15:49:34.950Z,70.80
2022-11-16T15:55:40.431Z,64.28
2022-11-16T16:01:43.771Z,64.35
2022-11-16T16:07:48.366Z,66.75
2022-11-16T16:14:02.573Z,71.32
2022-11-16T16:20:07.221Z,64.18
2022-11-16T16:26:09.506Z,63.65
2022-11-16T16:32:23.648Z,62.00
2022-11-16T16:38:26.019Z,64.03
2022-11-16T16:44:28.138Z,70.90
2022-11-16T16:50:30.393Z,71.75
2022-11-16T16:56:32.703Z,69.82
2022-11-16T17:02:37.579Z,75.28
2022-11-16T17:08:40.428Z,80.78
2022-11-16T17:14:43.191Z,80.70
2022-11-16T17:26:51.149Z,71.05
2022-11-16T17:32:53.230Z,62.88
2022-11-16T17:38:55.252Z,73.40
2022-11-16T17:44:57.250Z,74.97
2022-11-16T17:50:59.535Z,83.83
2022-11-16T17:57:02.129Z,86.68
2022-11-16T18:03:04.295Z,85.53
2022-11-16T18:09:06.462Z,77.85
2022-11-16T18:21:34.459Z,87.10
2022-11-16T18:27:36.529Z,76.00
2022-11-16T18:33:39.397Z,83.90
2022-11-16T18:39:41.756Z,84.45
2022-11-16T18:45:43.956Z,80.15
2022-11-16T18:51:47.531Z,60.97
2022-11-16T18:57:50.334Z,70.63
2022-11-16T19:03:54.012Z,73.50
2022-11-16T19:09:57.497Z,83.18
2022-11-16T19:16:00.195Z,81.30
2022-11-16T19:22:02.874Z,75.60
2022-11-16T19:34:12.046Z,68.72
2022-11-16T19:40:14.807Z,81.90
2022-11-16T19:52:20.597Z,73.95
2022-11-16T19:58:23.293Z,68.30
2022-11-16T20:04:27.422Z,67.32
2022-11-16T20:10:30.609Z,76.43
2022-11-16T20:16:38.787Z,64.57
2022-11-16T20:22:41.832Z,85.80
2022-11-16T20:28:45.698Z,72.18
2022-11-16T20:34:48.465Z,81.78
2022-11-16T20:46:53.404Z,71.32
2022-11-16T20:52:56.563Z,79.25
2022-11-16T20:59:00.147Z,69.35
2022-11-16T21:05:02.947Z,75.10
2022-11-16T21:17:18.645Z,83.90
2022-11-16T21:23:21.048Z,69.38
2022-11-16T21:29:26.510Z,77.25
2022-11-16T21:35:29.120Z,74.72
2022-11-16T21:41:32.346Z,79.18
2022-11-16T21:47:34.449Z,67.70
2022-11-16T21:53:37.627Z,66.33
2022-11-16T21:59:40.229Z,64.00
2022-11-16T22:06:00.956Z,74.45
2022-11-16T22:12:05.397Z,74.40
2022-11-16T22:18:07.690Z,68.13
2022-11-16T22:24:09.733Z,71.33
2022-11-16T22:30:12.357Z,60.22
2022-11-16T22:36:15.430Z,67.55
2022-11-16T22:42:17.818Z,58.97
2022-11-16T22:48:20.030Z,73.82
2022-11-16T22:54:27.334Z,63.10
2022-11-16T23:00:31.125Z,67.95
2022-11-16T23:06:33.564Z,67.65
2022-11-16T23:12:54.446Z,57.35
2022-11-16T23:18:56.987Z,62.00
2022-11-16T23:25:17.681Z,57.95
2022-11-16T23:31:19.740Z,64.90
2022-11-16T23:37:22.184Z,54.83
2022-11-16T23:43:43.044Z,61.75
2022-11-16T23:49:44.990Z,52.90
2022-11-16T23:55:47.768Z,66.23
